Bismarck, ND (58501)

7:51 AM CST on March 04, 2015 (GMT -0600)
Highland Acres | Change Station
CLOSE
Current Station
Personal Weather Station
Location: Bismarck, ND
Elevation: 1713 ft
Nearby Weather Stations
Active Advisory: Wind Chill Advisory

Elev 1713 ft 46.81 °N, 100.81 °W | Updated 14 minutes ago

Clear
Clear
-5.6 °F
Feels Like -22 °F
N
9.4
Wind Variable Wind from NNW

Today
High -- | Low -- °F
--% Chance of Precip.
Yesterday
High -- | Low -- °F
Precip. -- in
7:17 AM 6:32 PM
Waxing Gibbous, 99% visible
Pressure 30.36 in
Visibility 10.0 miles
Clouds Clear
Windchill -22 °F
Dew Point -12 °F
Humidity 72%
Rainfall 0.30 in
Snow Depth Not available.
UV 0 out of 12
Pollen .30 out of 12
Air Quality Not available.
Flu Activity Not available.
METAR KBIS 041252Z 31012G22KT 10SM CLR M20/M25 A3023 RMK AO2 SLP281 T12001250

More Conditions Fewer Conditions

Pressure 30.36 in
Visibility 10.0 miles
Clouds Clear
Windchill -22 °F
Dew Point -12 °F
Humidity 72%
Rainfall 0.30 in
Snow Depth Not available.
UV 0 out of 12
Pollen .30 out of 12
Air Quality Not available.
Flu Activity Not available.
METAR KBIS 041252Z 31012G22KT 10SM CLR M20/M25 A3023 RMK AO2 SLP281 T12001250

More Conditions Fewer Conditions

10-Day Weather Forecast

Almanac

Astronomy

Mar. 04, 2015 Rise Set
Actual Time
Civil Twilight
Nautical Twilight
Astronomical Twilight
Moon
Length of Visible Light
Length of Day
Tomorrow will be .
, % of the Moon is Illuminated

Today's Extremes

State Highs State Lows

Community

WunderPhotos

Upload Photos

1,802,453 photos uploaded!

WunderBlogs® & News

Nearby

Air Quality

  Air Quality AQ Index Pollutant
Not available.

Snow Depth

Station Depth Elevation

Earthquake Activity

City Distance Mag. Time & Date
Minimum magnitude displayed is 2.5.

Coastal Water Temperatures

Place Temperature

Nearby Weather Stations

Wind Chill Advisory
Statement as of 5:35 AM MST on March 04, 2015

... Wind Chill Advisory remains in effect until noon CST /11 am
MST/ today...

* wind chill values... 25 to 40 below zero.

* Other impacts... frost bite possible in under 30 minutes to
exposed skin.

Precautionary/preparedness actions...

A Wind Chill Advisory means the combination of wind and very cold
air will create low wind chills. This will result in frost bite
and lead to hypothermia if precautions are not taken.